Terminal Aerodrome Forecast
Issued by NWS

Home | Current Version | Previous Version | Text Only | Print | Product List | Glossary On
Versions: 1 2 3 4 5 6 7 8 9 10 11 12
000
FTUS45 KTWC 191721
TAFOLS
TAF
KOLS 191721Z 1918/2018 VRB04KT P6SM BKN100 BKN200
     FM192000 23007KT P6SM VCSH SCT090 BKN150
     FM200100 19007KT P6SM VCSH SCT070 BKN140
     FM200700 VRB03KT P6SM SCT070 BKN180=

USA.gov is the U.S. government's official web portal to all federal, state and local government web resources and services.